Terminal Aerodrome Forecast
Issued by NWS Medford, OR

Home | Current Version | Previous Version | Text Only | Print | Product List | Glossary On
Versions: 1 2 3 4 5 6 7 8 9 10 11 12 13 14 15 16 17 18 19 20 21
000
FTUS46 KMFR 262340
TAFMFR
TAF
KMFR 262340Z 2700/2724 31007KT P6SM VCSH SCT025 BKN045
     FM270800 VRB02KT P6SM BKN020 OVC035
     FM271500 VRB02KT P6SM SCT020 BKN040=

USA.gov is the U.S. government's official web portal to all federal, state and local government web resources and services.